FNUE

Luena Airport

Luena, Angola
TAF FNUE 251045Z 2512/2524 09004KT 9999 FEW030 PROB30 TEMPO 2515/2522 15007KT SCT030 BECMG 2522/2524 VRB03KT SCT025 BKN050
Issued Valid From Valid To
Apr-25 @ 10:45 UTC
(8 hours ago)
Apr-25 @ 12:00 UTC
(6 hours ago)
Apr-26 @ 00:00 UTC
(in 6 hours)
Apr-25 @ 12:00 to Apr-25 @ 22:00
TAF FNUE 251045Z 2512/2524 09004KT 9999 FEW030
Wind Visibility Clouds
90° at 4 knots 10,000+ meters
  • Few at 3,000' AGL
Temporary  (Probability 30%) Apr-25 @ 15:00 to Apr-25 @ 22:00
PROB30 TEMPO 2515/2522 15007KT SCT030
Wind Clouds
150° at 7 knots
  • Scattered at 3,000' AGL
Becoming Apr-25 @ 22:00 to Apr-26 @ 00:00
BECMG 2522/2524 VRB03KT SCT025 BKN050
Wind Visibility Clouds
Variable at 3 knots 10,000+ meters
  • Scattered at 2,500' AGL
  • Broken at 5,000' AGL
TAF FNUE 251045Z 2512/2524 09004KT 9999 FEW030 PROB30 TEMPO 2515/2522 15007KT SCT030 BECMG 2522/2524 VRB03KT SCT025 BKN050
Issued Apr-25 @ 10:45 UTC
(8 hours ago)
Valid From Apr-25 @ 12:00 UTC
(6 hours ago)
Valid To Apr-26 @ 00:00 UTC
(in 6 hours)
Apr-25 @ 12:00 - Apr-25 @ 22:00
Wind Visibility
90° at 4 knots 10,000+ meters
Clouds
  • Few at 3,000' AGL
Probability 30% Temporary Apr-25 @ 15:00 - Apr-25 @ 22:00
Wind
150° at 7 knots
Clouds
  • Scattered at 3,000' AGL
Becoming Apr-25 @ 22:00 - Apr-26 @ 00:00
Wind Visibility
Variable at 3 knots 10,000+ meters
Clouds
  • Scattered at 2,500' AGL
  • Broken at 5,000' AGL